createdAt,value
2023-02-27T00:00:35.069Z,1.60
2023-02-27T00:03:02.941Z,1.70
2023-02-27T00:05:30.672Z,1.60
2023-02-27T00:07:58.444Z,1.47
2023-02-27T00:10:27.596Z,1.30
2023-02-27T00:12:58.908Z,1.90
2023-02-27T00:15:26.783Z,1.70
2023-02-27T00:17:54.475Z,1.70
2023-02-27T00:20:22.292Z,1.63
2023-02-27T00:22:49.990Z,1.60
2023-02-27T00:25:17.703Z,1.50
2023-02-27T00:27:46.815Z,1.63
2023-02-27T00:30:15.571Z,1.80
2023-02-27T00:32:43.680Z,1.60
2023-02-27T00:35:12.443Z,1.70
2023-02-27T00:37:40.970Z,1.70
2023-02-27T00:40:12.588Z,1.60
2023-02-27T00:42:40.302Z,1.50
2023-02-27T00:45:10.078Z,1.60
2023-02-27T00:47:37.873Z,1.50
2023-02-27T00:50:07.875Z,1.70
2023-02-27T00:52:35.603Z,1.70
2023-02-27T00:55:03.336Z,1.67
2023-02-27T00:57:31.227Z,1.70
2023-02-27T00:59:58.930Z,1.70
2023-02-27T01:02:28.199Z,1.50
2023-02-27T01:04:55.935Z,1.57
2023-02-27T01:07:23.621Z,1.47
2023-02-27T01:09:51.322Z,1.60
2023-02-27T01:12:19.053Z,1.60
2023-02-27T01:14:46.900Z,1.70
2023-02-27T01:17:14.574Z,1.70
2023-02-27T01:19:43.711Z,1.47
2023-02-27T01:22:11.523Z,1.60
2023-02-27T01:24:39.286Z,1.80
2023-02-27T01:27:07.177Z,1.80
2023-02-27T01:29:37.489Z,1.47
2023-02-27T01:32:05.457Z,1.70
2023-02-27T01:34:34.311Z,1.73
2023-02-27T01:37:03.645Z,1.70
2023-02-27T01:39:32.929Z,1.50
2023-02-27T01:42:01.086Z,1.57
2023-02-27T01:44:29.349Z,1.53
2023-02-27T01:46:57.715Z,1.60
2023-02-27T01:49:26.698Z,1.53
2023-02-27T01:51:56.143Z,1.70
2023-02-27T01:54:27.728Z,1.60
2023-02-27T01:56:55.443Z,1.80
2023-02-27T01:59:23.707Z,1.60
2023-02-27T02:01:52.250Z,1.53
2023-02-27T02:04:23.683Z,1.50
2023-02-27T02:06:53.782Z,1.50
2023-02-27T02:09:22.712Z,1.60
2023-02-27T02:11:52.220Z,1.80
2023-02-27T02:14:20.083Z,1.70
2023-02-27T02:16:59.584Z,1.77
2023-02-27T02:19:57.271Z,1.80
2023-02-27T02:22:44.901Z,1.70
2023-02-27T02:25:22.450Z,1.60
2023-02-27T02:27:56.208Z,1.60
2023-02-27T02:30:48.449Z,1.80
2023-02-27T02:33:34.948Z,1.87
2023-02-27T02:36:26.222Z,1.57
2023-02-27T02:39:08.827Z,1.80
2023-02-27T02:41:46.783Z,1.73
2023-02-27T02:44:19.613Z,1.90
2023-02-27T02:46:48.910Z,1.77
2023-02-27T02:49:19.136Z,1.60
2023-02-27T02:51:49.972Z,1.90
2023-02-27T02:54:19.253Z,1.90
2023-02-27T02:56:51.645Z,1.90
2023-02-27T02:59:22.803Z,1.80
2023-02-27T03:01:52.532Z,1.70
2023-02-27T03:04:24.399Z,1.60
2023-02-27T03:06:55.047Z,1.60
2023-02-27T03:09:25.647Z,1.60
2023-02-27T03:11:57.376Z,1.90
2023-02-27T03:14:28.820Z,1.70
2023-02-27T03:16:59.754Z,1.80
2023-02-27T03:19:29.271Z,1.80
2023-02-27T03:21:58.468Z,1.80
2023-02-27T03:24:29.052Z,1.80
2023-02-27T03:26:59.545Z,1.70
2023-02-27T03:29:29.749Z,1.70
2023-02-27T03:31:59.795Z,1.90
2023-02-27T03:34:29.320Z,2.00
2023-02-27T03:37:01.859Z,2.10
2023-02-27T03:39:34.250Z,2.20
2023-02-27T03:42:07.623Z,1.90
2023-02-27T03:44:39.424Z,2.00
2023-02-27T03:47:07.107Z,1.70
2023-02-27T03:49:34.803Z,2.00
2023-02-27T03:52:04.038Z,2.20
2023-02-27T03:54:34.745Z,2.00
2023-02-27T03:57:05.186Z,2.20
2023-02-27T03:59:36.099Z,2.30
2023-02-27T04:02:06.346Z,2.00
2023-02-27T04:04:35.744Z,2.00
2023-02-27T04:07:26.084Z,1.93
2023-02-27T04:10:08.589Z,1.90
2023-02-27T04:12:46.659Z,2.40
2023-02-27T04:15:22.646Z,2.30
2023-02-27T04:17:56.102Z,2.33
2023-02-27T04:20:38.682Z,2.37
2023-02-27T04:23:08.246Z,2.20
2023-02-27T04:25:45.022Z,2.30
2023-02-27T04:28:19.073Z,2.10
2023-02-27T04:30:49.214Z,2.40
2023-02-27T04:33:26.371Z,2.30
2023-02-27T04:35:55.507Z,2.00
2023-02-27T04:38:29.040Z,2.23
2023-02-27T04:40:59.027Z,2.50
2023-02-27T04:43:29.495Z,2.40
2023-02-27T04:45:58.302Z,2.20
2023-02-27T04:48:27.588Z,2.23
2023-02-27T04:50:58.308Z,2.50
2023-02-27T04:53:27.538Z,2.47
2023-02-27T04:55:56.939Z,2.50
2023-02-27T04:58:26.978Z,2.60
2023-02-27T05:00:59.190Z,2.80
2023-02-27T05:03:29.630Z,2.43
2023-02-27T05:05:59.818Z,2.70
2023-02-27T05:08:31.255Z,2.57
2023-02-27T05:11:01.613Z,2.67
2023-02-27T05:13:32.013Z,2.63
2023-02-27T05:16:04.617Z,2.60
2023-02-27T05:18:32.456Z,2.70
2023-02-27T05:21:02.988Z,2.67
2023-02-27T05:23:34.831Z,2.70
2023-02-27T05:26:04.725Z,2.87
2023-02-27T05:28:35.807Z,3.20
2023-02-27T05:31:09.016Z,3.53
2023-02-27T05:33:39.407Z,3.77
2023-02-27T05:36:10.149Z,3.47
2023-02-27T05:38:39.890Z,3.90
2023-02-27T05:41:09.913Z,4.10
2023-02-27T05:43:39.979Z,3.90
2023-02-27T05:46:11.795Z,4.27
2023-02-27T05:48:42.200Z,4.83
2023-02-27T05:51:12.419Z,5.50
2023-02-27T05:53:42.601Z,5.50
2023-02-27T05:56:11.460Z,5.97
2023-02-27T05:58:42.117Z,5.80
2023-02-27T06:01:12.512Z,5.70
2023-02-27T06:03:43.681Z,5.87
2023-02-27T06:06:14.713Z,5.80
2023-02-27T06:08:42.399Z,5.53
2023-02-27T06:11:10.287Z,5.30
2023-02-27T06:13:41.523Z,5.67
2023-02-27T06:16:12.506Z,4.87
2023-02-27T06:18:40.362Z,5.40
2023-02-27T06:21:08.497Z,5.20
2023-02-27T06:23:36.367Z,4.90
2023-02-27T06:26:04.066Z,5.10
2023-02-27T06:28:31.786Z,4.77
2023-02-27T06:30:59.563Z,4.57
2023-02-27T06:33:28.844Z,5.30
2023-02-27T06:35:56.733Z,5.33
2023-02-27T06:38:24.537Z,4.90
2023-02-27T06:40:52.267Z,5.23
2023-02-27T06:43:22.899Z,5.30
2023-02-27T06:45:50.680Z,5.73
2023-02-27T06:48:18.443Z,5.57
2023-02-27T06:50:47.654Z,6.37
2023-02-27T06:53:15.364Z,7.07
2023-02-27T06:55:43.233Z,7.37
2023-02-27T06:58:10.935Z,9.73
2023-02-27T07:00:39.536Z,10.30
2023-02-27T07:03:07.292Z,11.43
2023-02-27T07:05:35.128Z,12.87
2023-02-27T07:08:04.513Z,14.43
2023-02-27T07:10:32.758Z,15.50
2023-02-27T07:13:00.554Z,14.93
2023-02-27T07:15:30.487Z,16.07
2023-02-27T07:17:58.269Z,16.63
2023-02-27T07:20:25.985Z,16.97
2023-02-27T07:22:53.701Z,17.07
2023-02-27T07:25:22.796Z,16.53
2023-02-27T07:27:51.007Z,16.77
2023-02-27T07:30:19.559Z,17.20
2023-02-27T07:32:47.396Z,17.63
2023-02-27T07:35:15.159Z,18.00
2023-02-27T07:37:42.958Z,17.53
2023-02-27T07:40:11.828Z,17.07
2023-02-27T07:42:40.969Z,17.47
2023-02-27T07:45:09.872Z,16.80
2023-02-27T07:47:37.598Z,16.80
2023-02-27T07:50:05.665Z,16.77
2023-02-27T07:52:33.555Z,18.00
2023-02-27T07:55:01.277Z,17.97
2023-02-27T07:57:29.002Z,17.83
2023-02-27T07:59:58.140Z,17.90
2023-02-27T08:02:25.866Z,18.57
2023-02-27T08:04:54.096Z,18.97
2023-02-27T08:07:21.862Z,18.90
2023-02-27T08:09:49.612Z,19.63
2023-02-27T08:12:17.318Z,21.30
2023-02-27T08:14:45.041Z,19.80
2023-02-27T08:17:14.277Z,20.53
2023-02-27T08:19:42.004Z,20.70
2023-02-27T08:22:09.811Z,20.33
2023-02-27T08:24:38.662Z,20.97
2023-02-27T08:27:06.427Z,20.77
2023-02-27T08:29:34.254Z,21.53
2023-02-27T08:32:02.397Z,21.27
2023-02-27T08:34:31.724Z,19.07
2023-02-27T08:36:59.396Z,20.27
2023-02-27T08:39:27.096Z,20.43
2023-02-27T08:41:54.840Z,21.47
2023-02-27T08:44:22.619Z,20.07
2023-02-27T08:46:50.370Z,21.27
2023-02-27T08:49:20.529Z,21.27
2023-02-27T08:51:50.485Z,21.67
2023-02-27T08:54:18.651Z,22.07
2023-02-27T08:56:46.445Z,21.80
2023-02-27T08:59:14.261Z,20.50
2023-02-27T09:01:42.584Z,20.03
2023-02-27T09:04:11.136Z,22.33
2023-02-27T09:06:38.983Z,21.60
2023-02-27T09:09:08.283Z,21.97
2023-02-27T09:11:38.541Z,20.63
2023-02-27T09:14:08.688Z,19.93
2023-02-27T09:16:36.502Z,20.50
2023-02-27T09:19:04.238Z,17.73
2023-02-27T09:21:32.332Z,16.67
2023-02-27T09:24:07.427Z,16.57
2023-02-27T09:26:46.902Z,18.03
2023-02-27T09:29:15.033Z,17.07
2023-02-27T09:31:42.829Z,16.10
2023-02-27T09:34:10.561Z,15.97
2023-02-27T09:36:40.876Z,15.77
2023-02-27T09:39:09.781Z,15.63
2023-02-27T09:41:45.251Z,15.23
2023-02-27T09:44:30.592Z,16.10
2023-02-27T09:47:04.404Z,15.40
2023-02-27T09:49:34.841Z,14.93
2023-02-27T09:52:02.797Z,14.63
2023-02-27T09:54:34.184Z,15.40
2023-02-27T09:57:03.296Z,15.63
2023-02-27T09:59:36.535Z,16.20
2023-02-27T10:02:12.219Z,14.07
2023-02-27T10:04:43.526Z,15.43
2023-02-27T10:07:16.728Z,14.57
2023-02-27T10:09:56.374Z,15.63
2023-02-27T10:12:29.370Z,14.03
2023-02-27T10:15:00.733Z,14.63
2023-02-27T10:17:30.618Z,14.00
2023-02-27T10:19:59.016Z,14.33
2023-02-27T10:22:28.363Z,13.07
2023-02-27T10:24:59.794Z,13.57
2023-02-27T10:27:27.561Z,14.20
2023-02-27T10:29:58.720Z,14.13
2023-02-27T10:32:29.701Z,13.60
2023-02-27T10:35:00.362Z,14.20
2023-02-27T10:37:28.814Z,13.57
2023-02-27T10:39:57.817Z,13.30
2023-02-27T10:42:27.132Z,13.03
2023-02-27T10:44:56.154Z,13.33
2023-02-27T10:47:24.702Z,13.63
2023-02-27T10:49:54.497Z,13.17
2023-02-27T10:52:22.390Z,13.37
2023-02-27T10:54:53.089Z,13.00
2023-02-27T10:57:28.149Z,13.40
2023-02-27T11:00:05.254Z,13.23
2023-02-27T11:02:37.148Z,12.30
2023-02-27T11:05:07.943Z,12.80
2023-02-27T11:07:37.477Z,13.13
2023-02-27T11:10:17.369Z,13.07
2023-02-27T11:12:58.091Z,12.57
2023-02-27T11:15:27.074Z,12.53
2023-02-27T11:17:55.179Z,12.90
2023-02-27T11:20:36.208Z,12.77
2023-02-27T11:23:05.592Z,12.53
2023-02-27T11:25:34.086Z,12.43
2023-02-27T11:28:15.147Z,12.73
2023-02-27T11:30:43.827Z,14.70
2023-02-27T11:33:21.132Z,14.33
2023-02-27T11:35:58.401Z,12.83
2023-02-27T11:38:28.140Z,13.57
2023-02-27T11:40:56.910Z,13.63
2023-02-27T11:43:25.782Z,13.37
2023-02-27T11:46:21.976Z,13.17
2023-02-27T11:48:53.060Z,13.97
2023-02-27T11:51:51.241Z,13.63
2023-02-27T11:54:32.407Z,13.93
2023-02-27T11:57:06.281Z,13.20
2023-02-27T11:59:41.292Z,13.23
2023-02-27T12:02:17.987Z,13.60
2023-02-27T12:04:51.503Z,14.07
2023-02-27T12:07:25.892Z,14.80
2023-02-27T12:09:58.917Z,14.13
2023-02-27T12:12:29.525Z,12.60
2023-02-27T12:15:00.509Z,12.57
2023-02-27T12:17:33.644Z,12.33
2023-02-27T12:20:28.262Z,13.03
2023-02-27T12:22:57.537Z,12.77
2023-02-27T12:25:34.280Z,12.60
2023-02-27T12:28:08.363Z,12.23
2023-02-27T12:30:43.796Z,12.67
2023-02-27T12:33:17.147Z,11.60
2023-02-27T12:35:46.294Z,12.30
2023-02-27T12:38:20.326Z,11.20
2023-02-27T12:40:55.424Z,11.87
2023-02-27T12:43:27.757Z,11.47
2023-02-27T12:46:06.650Z,11.47
2023-02-27T12:48:52.221Z,11.90
2023-02-27T12:51:26.100Z,11.80
2023-02-27T12:54:05.103Z,11.03
2023-02-27T12:56:39.952Z,10.27
2023-02-27T12:59:11.268Z,10.53
2023-02-27T13:01:42.635Z,10.43
2023-02-27T13:04:15.972Z,9.97
2023-02-27T13:06:46.549Z,9.83
2023-02-27T13:09:21.401Z,9.53
2023-02-27T13:11:56.022Z,9.87
2023-02-27T13:14:31.466Z,9.27
2023-02-27T13:17:05.156Z,8.80
2023-02-27T13:19:35.576Z,9.13
2023-02-27T13:22:08.371Z,8.17
2023-02-27T13:24:40.599Z,6.60
2023-02-27T13:27:13.093Z,5.57
2023-02-27T13:29:45.301Z,5.97
2023-02-27T13:32:32.752Z,5.60
2023-02-27T13:35:09.558Z,5.20
2023-02-27T13:37:50.983Z,5.07
2023-02-27T13:40:30.166Z,5.50
2023-02-27T13:43:00.627Z,5.50
2023-02-27T13:46:01.917Z,5.20
2023-02-27T13:48:41.232Z,5.10
2023-02-27T13:51:35.160Z,5.17
2023-02-27T13:54:15.412Z,4.97
2023-02-27T13:56:46.520Z,4.87
2023-02-27T13:59:20.403Z,4.37
2023-02-27T14:01:54.791Z,4.40
2023-02-27T14:04:25.019Z,4.40
2023-02-27T14:06:58.270Z,4.27
2023-02-27T14:09:26.230Z,3.67
2023-02-27T14:11:55.585Z,3.70
2023-02-27T14:14:40.144Z,3.73
2023-02-27T14:17:11.358Z,3.47
2023-02-27T14:19:46.011Z,3.70
2023-02-27T14:22:32.409Z,3.53
2023-02-27T14:25:05.293Z,3.20
2023-02-27T14:27:38.222Z,2.90
2023-02-27T14:30:09.378Z,2.80
2023-02-27T14:32:40.054Z,2.80
2023-02-27T14:35:08.845Z,2.87
2023-02-27T14:37:39.970Z,2.40
2023-02-27T14:40:09.971Z,2.90
2023-02-27T14:42:47.990Z,3.03
2023-02-27T14:45:24.327Z,2.33
2023-02-27T14:47:53.552Z,2.73
2023-02-27T14:50:26.514Z,2.50
2023-02-27T14:52:55.652Z,2.50
2023-02-27T14:55:28.294Z,2.40
2023-02-27T14:58:00.365Z,2.63
2023-02-27T15:00:40.765Z,2.67
2023-02-27T15:03:27.285Z,2.70
2023-02-27T15:06:01.221Z,2.40
2023-02-27T15:08:30.567Z,2.47
2023-02-27T15:10:59.882Z,2.10
2023-02-27T15:13:29.446Z,2.20
2023-02-27T15:16:16.743Z,2.50
2023-02-27T15:18:50.856Z,2.30
2023-02-27T15:21:19.413Z,2.30
2023-02-27T15:23:54.846Z,2.00
2023-02-27T15:26:25.477Z,2.20
2023-02-27T15:28:53.529Z,2.20
2023-02-27T15:31:24.469Z,1.93
2023-02-27T15:33:55.174Z,2.30
2023-02-27T15:36:24.395Z,2.30
2023-02-27T15:39:04.274Z,1.90
2023-02-27T15:41:32.135Z,2.10
2023-02-27T15:44:00.126Z,2.10
2023-02-27T15:46:28.082Z,2.00
2023-02-27T15:48:57.424Z,2.03
2023-02-27T15:51:26.794Z,2.10
2023-02-27T15:53:55.655Z,2.20
2023-02-27T15:56:26.705Z,2.20
2023-02-27T15:59:00.242Z,1.90
2023-02-27T16:01:29.980Z,2.20
2023-02-27T16:04:00.851Z,1.87
2023-02-27T16:06:30.583Z,2.13
2023-02-27T16:09:00.421Z,2.17
2023-02-27T16:11:28.895Z,2.37
2023-02-27T16:13:57.792Z,2.10
2023-02-27T16:16:31.750Z,2.30
2023-02-27T16:19:03.401Z,2.10
2023-02-27T16:21:32.355Z,2.17
2023-02-27T16:24:14.954Z,2.20
2023-02-27T16:26:42.724Z,2.20
2023-02-27T16:29:19.677Z,2.10
2023-02-27T16:31:49.270Z,2.23
2023-02-27T16:34:42.704Z,2.10
2023-02-27T16:37:18.963Z,2.23
2023-02-27T16:39:46.949Z,2.40
2023-02-27T16:42:14.756Z,2.30
2023-02-27T16:44:42.604Z,2.50
2023-02-27T16:47:10.957Z,2.60
2023-02-27T16:49:41.241Z,2.57
2023-02-27T16:52:10.332Z,2.53
2023-02-27T16:54:38.740Z,2.50
2023-02-27T16:57:06.750Z,2.50
2023-02-27T16:59:35.667Z,2.40
2023-02-27T17:02:04.183Z,2.50
2023-02-27T17:04:32.220Z,2.70
2023-02-27T17:07:03.695Z,2.43
2023-02-27T17:09:33.114Z,2.57
2023-02-27T17:12:00.851Z,2.50
2023-02-27T17:14:28.558Z,2.30
2023-02-27T17:16:56.293Z,2.40
2023-02-27T17:19:27.085Z,2.60
2023-02-27T17:21:59.223Z,2.50
2023-02-27T17:24:28.667Z,2.60
2023-02-27T17:26:56.674Z,2.50
2023-02-27T17:29:25.139Z,2.47
2023-02-27T17:31:53.046Z,2.40
2023-02-27T17:34:20.748Z,2.20
2023-02-27T17:36:49.761Z,2.13
2023-02-27T17:39:17.999Z,2.23
2023-02-27T17:41:47.505Z,2.30
2023-02-27T17:44:15.483Z,2.50
2023-02-27T17:46:43.252Z,2.13
2023-02-27T17:49:11.983Z,2.47
2023-02-27T17:51:41.149Z,2.60
2023-02-27T17:54:08.837Z,2.20
2023-02-27T17:56:37.159Z,2.50
2023-02-27T17:59:11.619Z,2.33
2023-02-27T18:01:39.354Z,2.47
2023-02-27T18:04:08.088Z,2.20
2023-02-27T18:06:37.683Z,2.20
2023-02-27T18:09:05.726Z,2.40
2023-02-27T18:11:33.404Z,2.50
2023-02-27T18:14:01.185Z,2.10
2023-02-27T18:16:30.759Z,2.60
2023-02-27T18:18:58.617Z,2.60
2023-02-27T18:21:26.430Z,2.70
2023-02-27T18:23:54.190Z,2.73
2023-02-27T18:26:29.827Z,2.53
2023-02-27T18:29:00.345Z,2.50
2023-02-27T18:31:29.196Z,2.50
2023-02-27T18:33:58.412Z,2.30
2023-02-27T18:36:26.535Z,2.63
2023-02-27T18:38:54.550Z,2.57
2023-02-27T18:41:23.547Z,2.67
2023-02-27T18:43:51.308Z,2.90
2023-02-27T18:46:22.188Z,3.00
2023-02-27T18:48:50.007Z,3.00
2023-02-27T18:51:21.091Z,2.93
2023-02-27T18:53:49.759Z,3.00
2023-02-27T18:56:18.414Z,2.97
2023-02-27T18:58:46.199Z,2.90
2023-02-27T19:01:19.611Z,3.00
2023-02-27T19:03:47.422Z,2.70
2023-02-27T19:06:15.185Z,3.10
2023-02-27T19:08:44.266Z,2.90
2023-02-27T19:11:11.995Z,2.60
2023-02-27T19:13:39.767Z,2.50
2023-02-27T19:16:07.869Z,2.80
2023-02-27T19:18:35.587Z,2.60
2023-02-27T19:21:04.117Z,2.83
2023-02-27T19:23:31.909Z,3.00
2023-02-27T19:26:01.251Z,3.07
2023-02-27T19:28:29.052Z,3.00
2023-02-27T19:30:59.707Z,2.70
2023-02-27T19:33:27.532Z,2.93
2023-02-27T19:35:55.257Z,3.10
2023-02-27T19:38:25.818Z,2.90
2023-02-27T19:40:53.590Z,2.97
2023-02-27T19:43:22.682Z,2.83
2023-02-27T19:45:50.347Z,3.17
2023-02-27T19:48:19.741Z,3.27
2023-02-27T19:50:48.391Z,3.33
2023-02-27T19:53:16.170Z,3.37
2023-02-27T19:55:43.851Z,3.60
2023-02-27T19:58:11.504Z,3.30
2023-02-27T20:00:40.945Z,3.60
2023-02-27T20:03:08.747Z,3.33
2023-02-27T20:05:38.596Z,3.50
2023-02-27T20:08:06.680Z,3.50
2023-02-27T20:10:34.355Z,3.57
2023-02-27T20:13:02.277Z,3.47
2023-02-27T20:15:30.069Z,3.60
2023-02-27T20:17:59.159Z,3.50
2023-02-27T20:20:26.991Z,3.90
2023-02-27T20:22:54.694Z,3.70
2023-02-27T20:25:22.560Z,3.90
2023-02-27T20:27:50.285Z,3.80
2023-02-27T20:30:18.094Z,4.00
2023-02-27T20:32:46.652Z,4.20
2023-02-27T20:35:15.875Z,3.80
2023-02-27T20:37:43.533Z,4.23
2023-02-27T20:40:11.698Z,4.27
2023-02-27T20:42:39.426Z,4.63
2023-02-27T20:45:07.635Z,4.90
2023-02-27T20:47:35.408Z,4.20
2023-02-27T20:50:04.122Z,4.90
2023-02-27T20:52:33.256Z,4.80
2023-02-27T20:55:01.057Z,5.40
2023-02-27T20:57:28.732Z,5.13
2023-02-27T20:59:56.458Z,5.20
2023-02-27T21:02:24.213Z,5.53
2023-02-27T21:04:53.400Z,5.43
2023-02-27T21:07:22.663Z,6.00
2023-02-27T21:09:51.916Z,6.13
2023-02-27T21:12:19.783Z,6.43
2023-02-27T21:14:49.491Z,6.40
2023-02-27T21:17:17.290Z,6.57
2023-02-27T21:19:45.117Z,6.80
2023-02-27T21:22:14.332Z,6.40
2023-02-27T21:24:42.022Z,6.83
2023-02-27T21:27:11.065Z,6.80
2023-02-27T21:29:41.396Z,7.23
2023-02-27T21:32:09.252Z,6.60
2023-02-27T21:34:37.066Z,6.73
2023-02-27T21:37:07.461Z,7.37
2023-02-27T21:39:35.216Z,7.63
2023-02-27T21:42:03.084Z,7.07
2023-02-27T21:44:32.280Z,8.17
2023-02-27T21:46:59.987Z,8.53
2023-02-27T21:49:28.574Z,8.73
2023-02-27T21:51:57.146Z,8.43
2023-02-27T21:54:25.029Z,8.63
2023-02-27T21:56:52.838Z,8.97
2023-02-27T21:59:20.957Z,9.67
2023-02-27T22:01:50.190Z,9.73
2023-02-27T22:04:18.889Z,9.63
2023-02-27T22:06:47.089Z,9.30
2023-02-27T22:09:14.836Z,9.20
2023-02-27T22:11:42.573Z,9.37
2023-02-27T22:14:11.141Z,9.57
2023-02-27T22:16:38.992Z,9.37
2023-02-27T22:19:09.070Z,9.00
2023-02-27T22:21:39.454Z,8.93
2023-02-27T22:24:07.884Z,8.43
2023-02-27T22:26:35.966Z,7.67
2023-02-27T22:29:03.919Z,8.20
2023-02-27T22:31:33.255Z,7.13
2023-02-27T22:34:02.223Z,6.30
2023-02-27T22:36:32.546Z,7.23
2023-02-27T22:39:00.796Z,7.10
2023-02-27T22:41:30.665Z,6.53
2023-02-27T22:43:59.063Z,6.97
2023-02-27T22:46:28.289Z,6.90
2023-02-27T22:48:57.197Z,6.63
2023-02-27T22:51:27.748Z,7.40
2023-02-27T22:53:57.800Z,6.87
2023-02-27T22:56:25.905Z,6.83
2023-02-27T22:58:54.271Z,6.63
2023-02-27T23:01:23.107Z,6.53
2023-02-27T23:03:51.519Z,6.60
2023-02-27T23:06:20.554Z,6.30
2023-02-27T23:08:48.428Z,6.60
2023-02-27T23:11:18.694Z,6.40
2023-02-27T23:13:46.494Z,6.27
2023-02-27T23:16:14.705Z,6.00
2023-02-27T23:18:42.896Z,5.87
2023-02-27T23:21:11.018Z,6.20
2023-02-27T23:23:38.796Z,6.10
2023-02-27T23:26:07.006Z,6.20
2023-02-27T23:28:36.740Z,5.83
2023-02-27T23:31:04.462Z,5.97
2023-02-27T23:33:32.631Z,5.70
2023-02-27T23:36:01.004Z,5.87
2023-02-27T23:38:29.492Z,6.23
2023-02-27T23:40:57.325Z,6.57
2023-02-27T23:43:42.650Z,6.00
2023-02-27T23:46:13.259Z,6.40
2023-02-27T23:48:42.579Z,6.70
2023-02-27T23:51:10.947Z,7.20
2023-02-27T23:53:39.430Z,6.73
2023-02-27T23:56:14.349Z,6.80
2023-02-27T23:58:42.203Z,6.37
